Minkler, California
Current Conditions -  °F | °C
As of 1:53 AM on Monday 20 Oct 2014 (Local Time) from KFAT Reporting Station
Clear Clear  
Wind Chill: 63°   Ceiling: Unl
Heat Index: 63°   Visibility: 10mi
Dew Point: 49°   Wind: 0mph
Humidity: 60%   Direction: NA
Pressure: 29.88"   Gusts: NA
Location:  36.8137°N, 119.374°W
Report Text: KFAT 200853Z 00000KT 10SM CLR 17/09 A2988 RMK AO2 SLP115 T01720094 58000
Loading
Personal Weather Stations






























Interactive Weather Map
Tropical Storm Tracking
New forecast layout! Learn more

10-Day Weather Forecast

Advertisements
Track Severe Weather on mobile